Beatty, Nevada
Current Conditions -  °F | °C
As of 10:52 PM on Tuesday 21 Oct 2014 (Local Time) from KDRA Reporting Station
Clear Clear  
Wind Chill: 57°   Ceiling: Unl
Heat Index: 57°   Visibility: 10mi
Dew Point: 24°   Wind: 0mph
Humidity: 28%   Direction: NA
Pressure: 29.95"   Gusts: NA
Location:  36.91°N, 116.76°W
Report Text: KDRA 220552Z AUTO 00000KT 10SM CLR 14/M04 A2995 RMK AO2 SLP107 T01391044 10244 20139 52014
Loading
Personal Weather Stations






























Interactive Weather Map
Tropical Storm Tracking
New forecast layout! Learn more

10-Day Weather Forecast

Advertisements
Track Severe Weather on mobile